Time;durP1;ratioP1;P1;durP2;ratioP2;P2;SDS_P1;SDS_P2;PMS_P1;PMS_P2;Temp;Humidity;BMP_temperature;BMP_pressure;BME280_temperature;BME280_humidity;BME280_pressure;Samples;Min_cycle;Max_cycle;Signal;HPM_P1;HPM_P2
2023/09/12 00:01:10;;;;;;;34.88;24.95;;;20.30;99.90;;;;;;5051479;28;20071;-52
2023/09/12 00:03:35;;;;;;;36.55;26.45;;;20.30;99.90;;;;;;5052186;28;20040;-56
2023/09/12 00:06:03;;;;;;;35.17;25.13;;;20.30;99.90;;;;;;5031207;28;20049;-52
2023/09/12 00:08:29;;;;;;;33.22;24.45;;;20.30;99.90;;;;;;5047620;28;20458;-55
2023/09/12 00:11:00;;;;;;;30.13;24.17;;;20.20;99.90;;;;;;5049644;28;20075;-54
2023/09/12 00:13:26;;;;;;;33.28;25.20;;;20.20;99.90;;;;;;5047807;28;20053;-50
2023/09/12 00:15:52;;;;;;;32.28;25.63;;;20.30;99.90;;;;;;5048342;28;20055;-55
2023/09/12 00:18:17;;;;;;;34.90;24.80;;;20.30;99.90;;;;;;5051668;28;20044;-54
2023/09/12 00:20:43;;;;;;;34.22;25.13;;;20.20;99.90;;;;;;5051329;28;20041;-53
2023/09/12 00:23:09;;;;;;;33.35;24.73;;;20.20;99.90;;;;;;5047932;28;20052;-54
2023/09/12 00:25:34;;;;;;;31.00;24.23;;;20.20;99.90;;;;;;5048474;28;20045;-53
2023/09/12 00:28:00;;;;;;;32.75;23.85;;;20.20;99.90;;;;;;5047735;28;20056;-50
2023/09/12 00:30:26;;;;;;;35.15;24.15;;;20.20;99.90;;;;;;5052577;28;20048;-51
2023/09/12 00:32:52;;;;;;;35.15;25.67;;;20.10;99.90;;;;;;5025231;28;20041;-56
2023/09/12 00:35:17;;;;;;;35.88;25.33;;;20.20;99.90;;;;;;5049377;28;20048;-54
2023/09/12 00:37:43;;;;;;;40.53;26.25;;;20.10;99.90;;;;;;5031270;28;20045;-51
2023/09/12 00:40:09;;;;;;;35.03;24.00;;;20.10;99.90;;;;;;5049026;28;20128;-52
2023/09/12 00:42:35;;;;;;;33.00;25.65;;;20.10;99.90;;;;;;5041317;28;20071;-51
2023/09/12 00:45:00;;;;;;;32.78;22.77;;;20.10;99.90;;;;;;5049427;28;20040;-53
2023/09/12 00:47:28;;;;;;;30.80;23.73;;;20.00;99.90;;;;;;5048994;28;21329;-54
2023/09/12 00:49:56;;;;;;;32.25;23.27;;;20.10;99.90;;;;;;5051887;28;20055;-54
2023/09/12 00:52:26;;;;;;;34.50;24.80;;;20.00;99.90;;;;;;5029720;28;20049;-53
2023/09/12 00:54:53;;;;;;;30.40;22.80;;;20.00;99.90;;;;;;5034540;28;20037;-55
2023/09/12 00:57:20;;;;;;;29.73;23.60;;;20.00;99.90;;;;;;5047585;28;20163;-51
2023/09/12 00:59:47;;;;;;;35.17;24.60;;;20.00;99.90;;;;;;5052884;28;20037;-55
2023/09/12 01:02:14;;;;;;;31.92;23.75;;;20.00;99.90;;;;;;5046644;28;20109;-53
2023/09/12 01:04:40;;;;;;;32.80;24.13;;;20.00;99.90;;;;;;5050565;28;20040;-55
2023/09/12 01:07:06;;;;;;;33.35;23.92;;;20.00;99.90;;;;;;5046405;28;20079;-52
2023/09/12 01:09:32;;;;;;;35.58;24.33;;;19.90;99.90;;;;;;5043052;28;20037;-52
2023/09/12 01:12:02;;;;;;;32.42;24.70;;;19.90;99.90;;;;;;5047304;28;20043;-56
2023/09/12 01:14:29;;;;;;;36.25;24.48;;;19.90;99.90;;;;;;5052590;28;20044;-57
2023/09/12 01:16:56;;;;;;;36.42;24.23;;;19.90;99.90;;;;;;5052465;28;20073;-56
2023/09/12 01:19:21;;;;;;;30.75;23.77;;;19.90;99.90;;;;;;5051892;28;20033;-50
2023/09/12 01:21:47;;;;;;;31.27;23.88;;;19.90;99.90;;;;;;5051480;28;20041;-50
2023/09/12 01:24:55;;;;;;;34.53;25.55;;;19.80;99.90;;;;;;5050526;28;20091;-49
2023/09/12 01:27:28;;;;;;;32.80;23.85;;;19.80;99.90;;;;;;5036541;28;20064;-51
2023/09/12 01:29:57;;;;;;;29.58;22.48;;;19.80;99.90;;;;;;5049258;28;20096;-56
2023/09/12 01:32:23;;;;;;;32.65;24.40;;;19.80;99.90;;;;;;5050002;28;20804;-53
2023/09/12 01:34:49;;;;;;;30.10;22.13;;;19.80;99.90;;;;;;5051905;28;20076;-56
2023/09/12 01:37:15;;;;;;;36.42;25.85;;;19.80;99.90;;;;;;5049738;28;20091;-50
2023/09/12 01:39:41;;;;;;;34.30;23.85;;;19.80;99.90;;;;;;5052086;28;20037;-56
2023/09/12 01:42:11;;;;;;;35.30;25.27;;;19.70;99.90;;;;;;5049406;28;20049;-53
2023/09/12 01:44:38;;;;;;;36.42;24.63;;;19.70;99.90;;;;;;5040529;28;20052;-53
2023/09/12 01:47:05;;;;;;;32.97;24.02;;;19.60;99.90;;;;;;5050284;28;20049;-49
2023/09/12 01:49:32;;;;;;;33.45;25.05;;;19.60;99.90;;;;;;5049580;28;20463;-50
2023/09/12 01:51:59;;;;;;;31.90;24.35;;;19.60;99.90;;;;;;5042175;28;20336;-52
2023/09/12 01:54:26;;;;;;;34.20;25.20;;;19.60;99.90;;;;;;5028855;28;20056;-53
2023/09/12 01:56:52;;;;;;;32.90;23.33;;;19.60;99.90;;;;;;5048582;28;20557;-53
2023/09/12 01:59:18;;;;;;;36.92;26.33;;;19.60;99.90;;;;;;5051253;28;20626;-53
2023/09/12 02:01:44;;;;;;;38.13;27.13;;;19.60;99.90;;;;;;5051078;28;20037;-55
2023/09/12 02:04:10;;;;;;;34.20;26.60;;;19.60;99.90;;;;;;5032434;28;20040;-51
2023/09/12 02:06:36;;;;;;;35.55;25.77;;;19.50;99.90;;;;;;5046382;28;20053;-57
2023/09/12 02:09:02;;;;;;;37.53;26.00;;;19.50;99.90;;;;;;5049292;28;20056;-51
2023/09/12 02:11:27;;;;;;;35.20;25.85;;;19.50;99.90;;;;;;5050421;28;20057;-53
2023/09/12 02:13:53;;;;;;;35.90;26.30;;;19.50;99.90;;;;;;5030455;28;20056;-53
2023/09/12 02:16:19;;;;;;;37.45;26.40;;;19.40;99.90;;;;;;5048305;28;20063;-51
2023/09/12 02:18:44;;;;;;;30.23;24.67;;;19.40;99.90;;;;;;5032841;28;20108;-55
2023/09/12 02:21:10;;;;;;;42.08;28.08;;;19.40;99.90;;;;;;5049438;28;20042;-53
2023/09/12 02:23:36;;;;;;;35.88;26.77;;;19.30;99.90;;;;;;5049766;28;20029;-50
2023/09/12 02:26:02;;;;;;;37.45;26.45;;;19.30;99.90;;;;;;5050552;28;20112;-53
2023/09/12 02:28:28;;;;;;;36.10;26.15;;;19.30;99.90;;;;;;5030755;28;20060;-49
2023/09/12 02:30:53;;;;;;;38.10;27.35;;;19.20;99.90;;;;;;5049314;28;20052;-50
2023/09/12 02:33:19;;;;;;;40.22;28.95;;;19.20;99.90;;;;;;5048682;28;20041;-56
2023/09/12 02:35:45;;;;;;;41.15;29.38;;;19.10;99.90;;;;;;5034074;28;20387;-52
2023/09/12 02:38:10;;;;;;;36.88;27.70;;;19.10;99.90;;;;;;5036635;28;20041;-55
2023/09/12 02:40:36;;;;;;;40.45;28.23;;;19.10;99.90;;;;;;5051179;28;20041;-54
2023/09/12 02:43:02;;;;;;;40.45;27.75;;;19.10;99.90;;;;;;5049452;28;20067;-55
2023/09/12 02:45:27;;;;;;;40.28;29.63;;;19.10;99.90;;;;;;5051254;28;20136;-53
2023/09/12 02:47:53;;;;;;;44.35;29.00;;;19.00;99.90;;;;;;5050515;28;20045;-52
2023/09/12 02:50:19;;;;;;;41.05;29.88;;;19.00;99.90;;;;;;5049383;28;20037;-52
2023/09/12 02:52:44;;;;;;;43.33;30.25;;;19.00;99.90;;;;;;5040774;28;20127;-53
2023/09/12 02:55:11;;;;;;;43.28;29.02;;;19.00;99.90;;;;;;5048933;28;20065;-53
2023/09/12 02:57:36;;;;;;;39.80;28.98;;;19.00;99.90;;;;;;5048523;28;20044;-50
2023/09/12 03:00:03;;;;;;;41.50;27.83;;;19.00;99.90;;;;;;5048048;28;20038;-53
2023/09/12 03:02:29;;;;;;;46.67;29.17;;;19.00;99.90;;;;;;5032816;28;20051;-54
2023/09/12 03:04:55;;;;;;;44.63;30.75;;;18.90;99.90;;;;;;5046454;28;20044;-53
2023/09/12 03:07:20;;;;;;;41.38;28.83;;;18.90;99.90;;;;;;5047681;28;20041;-55
2023/09/12 03:09:49;;;;;;;41.03;28.10;;;18.90;99.90;;;;;;5047805;28;20045;-56
2023/09/12 03:12:15;;;;;;;40.67;30.15;;;18.80;99.90;;;;;;5044245;28;20100;-53
2023/09/12 03:14:41;;;;;;;42.45;30.05;;;18.80;99.90;;;;;;5046301;28;20084;-53
2023/09/12 03:17:07;;;;;;;41.08;29.55;;;18.80;99.90;;;;;;5045536;28;20524;-54
2023/09/12 03:19:32;;;;;;;39.83;28.20;;;18.80;99.90;;;;;;5046968;28;20073;-52
2023/09/12 03:21:58;;;;;;;39.15;28.05;;;18.80;99.90;;;;;;5049845;28;20510;-53
2023/09/12 03:24:25;;;;;;;40.58;29.63;;;18.70;99.90;;;;;;5051546;28;20037;-55
2023/09/12 03:26:53;;;;;;;44.40;29.33;;;18.70;99.90;;;;;;5049232;28;20065;-53
2023/09/12 03:29:19;;;;;;;49.90;28.95;;;18.70;99.90;;;;;;5044040;28;20080;-53
2023/09/12 03:31:45;;;;;;;44.30;30.40;;;18.70;99.90;;;;;;5045125;28;20036;-52
2023/09/12 03:34:10;;;;;;;44.85;29.95;;;18.70;99.90;;;;;;5049344;28;20047;-54
2023/09/12 03:36:36;;;;;;;43.85;29.38;;;18.70;99.90;;;;;;5047249;28;20270;-52
2023/09/12 03:39:05;;;;;;;41.92;28.98;;;18.70;99.90;;;;;;5046337;28;20033;-49
2023/09/12 03:41:31;;;;;;;47.50;29.55;;;18.70;99.90;;;;;;5049324;28;20052;-54
2023/09/12 03:43:56;;;;;;;46.55;29.13;;;18.70;99.90;;;;;;5043968;28;20717;-49
2023/09/12 03:46:22;;;;;;;41.25;27.65;;;18.70;99.90;;;;;;5045859;28;20032;-52
2023/09/12 03:48:49;;;;;;;44.67;29.30;;;18.70;99.90;;;;;;5040437;28;20137;-53
2023/09/12 03:51:15;;;;;;;41.70;28.15;;;18.60;99.90;;;;;;5044099;28;20049;-56
2023/09/12 03:53:40;;;;;;;41.58;27.83;;;18.60;99.90;;;;;;5028518;28;20040;-50
2023/09/12 03:56:06;;;;;;;44.17;27.58;;;18.60;99.90;;;;;;5045399;28;20041;-54
2023/09/12 03:58:32;;;;;;;41.85;26.00;;;18.60;99.90;;;;;;5044668;28;20037;-54
2023/09/12 04:00:57;;;;;;;38.00;26.02;;;18.60;99.90;;;;;;5043188;28;20075;-56
2023/09/12 04:03:23;;;;;;;39.85;25.67;;;18.50;99.90;;;;;;4989145;28;20065;-51
2023/09/12 04:05:50;;;;;;;35.33;25.70;;;18.40;99.90;;;;;;5041746;28;20047;-51
2023/09/12 04:08:16;;;;;;;37.70;24.70;;;18.40;99.90;;;;;;5028352;28;20064;-55
2023/09/12 04:10:43;;;;;;;36.05;25.90;;;18.30;99.90;;;;;;5044653;28;20052;-53
2023/09/12 04:13:09;;;;;;;34.78;24.92;;;18.30;99.90;;;;;;5043303;28;20281;-56
2023/09/12 04:15:34;;;;;;;36.72;25.83;;;18.30;99.90;;;;;;5031863;28;20061;-54
2023/09/12 04:18:00;;;;;;;37.90;27.10;;;18.30;99.90;;;;;;5043843;28;20040;-55
2023/09/12 04:20:26;;;;;;;39.33;27.30;;;18.30;99.90;;;;;;5023403;28;20044;-53
2023/09/12 04:22:52;;;;;;;40.42;27.65;;;18.30;99.90;;;;;;5044485;28;20041;-56
2023/09/12 04:25:19;;;;;;;44.38;28.38;;;18.30;99.90;;;;;;5028720;28;20479;-55
2023/09/12 04:27:45;;;;;;;40.30;26.52;;;18.30;99.90;;;;;;5034914;28;20726;-53
2023/09/12 04:30:12;;;;;;;41.40;27.15;;;18.30;99.90;;;;;;5024007;28;20045;-54
2023/09/12 04:32:37;;;;;;;40.78;27.05;;;18.30;99.90;;;;;;5027031;28;20073;-49
2023/09/12 04:35:03;;;;;;;49.70;27.27;;;18.30;99.90;;;;;;5024294;28;20049;-56
2023/09/12 04:37:29;;;;;;;40.33;28.00;;;18.20;99.90;;;;;;5025048;28;20521;-54
2023/09/12 04:39:56;;;;;;;40.10;27.45;;;18.20;99.90;;;;;;5025246;28;20047;-51
2023/09/12 04:42:21;;;;;;;36.17;27.33;;;18.20;99.90;;;;;;5024775;28;20378;-55
2023/09/12 04:44:48;;;;;;;41.60;27.48;;;18.20;99.90;;;;;;5025457;28;20045;-51
2023/09/12 04:47:14;;;;;;;39.13;27.38;;;18.20;99.90;;;;;;5022190;28;20037;-55
2023/09/12 04:49:40;;;;;;;45.50;29.33;;;18.20;99.90;;;;;;5023282;28;20049;-53
2023/09/12 04:52:06;;;;;;;44.08;27.65;;;18.20;99.90;;;;;;5021482;28;20075;-56
2023/09/12 04:54:32;;;;;;;44.20;27.67;;;18.10;99.90;;;;;;5021214;28;20512;-54
2023/09/12 04:56:58;;;;;;;42.80;28.35;;;18.10;99.90;;;;;;5024835;28;20037;-54
2023/09/12 04:59:23;;;;;;;44.60;28.42;;;18.20;99.90;;;;;;5021674;28;20066;-51
2023/09/12 05:01:50;;;;;;;39.17;26.85;;;18.20;99.90;;;;;;5024372;28;20049;-53
2023/09/12 05:04:16;;;;;;;45.53;27.90;;;18.20;99.90;;;;;;5005320;28;20041;-52
2023/09/12 05:06:42;;;;;;;43.97;29.15;;;18.20;99.90;;;;;;5008275;28;20049;-54
2023/09/12 05:09:08;;;;;;;41.08;28.25;;;18.20;99.90;;;;;;5011536;28;20049;-53
2023/09/12 05:11:35;;;;;;;43.08;28.63;;;18.30;99.90;;;;;;5021117;28;20100;-56
2023/09/12 05:14:03;;;;;;;45.80;29.13;;;18.30;99.90;;;;;;5016128;28;20080;-50
2023/09/12 05:16:29;;;;;;;45.67;29.90;;;18.30;99.90;;;;;;5019954;28;20061;-54
2023/09/12 05:18:55;;;;;;;44.25;29.25;;;18.30;99.90;;;;;;5019859;28;20060;-52
2023/09/12 05:21:20;;;;;;;50.45;30.95;;;18.30;99.90;;;;;;5023086;28;20053;-52
2023/09/12 05:23:46;;;;;;;47.28;30.27;;;18.40;99.90;;;;;;5023050;28;20037;-52
2023/09/12 05:26:12;;;;;;;44.50;29.45;;;18.40;99.90;;;;;;5018266;28;20060;-54
2023/09/12 05:28:38;;;;;;;48.00;29.52;;;18.40;99.90;;;;;;5034793;28;20570;-51
2023/09/12 05:31:03;;;;;;;48.97;30.67;;;18.40;99.90;;;;;;5040010;28;20099;-54
2023/09/12 05:33:29;;;;;;;47.67;29.30;;;18.40;99.90;;;;;;5043746;28;20132;-50
2023/09/12 05:35:55;;;;;;;45.92;28.52;;;18.40;99.90;;;;;;5045923;28;20052;-53
2023/09/12 05:38:20;;;;;;;42.90;29.88;;;18.40;99.90;;;;;;5044583;28;20046;-56
2023/09/12 05:40:49;;;;;;;39.88;26.98;;;18.30;99.90;;;;;;5043108;28;20033;-51
2023/09/12 05:43:16;;;;;;;48.70;29.50;;;18.30;99.90;;;;;;5042046;28;20049;-55
2023/09/12 05:45:42;;;;;;;50.05;30.48;;;18.30;99.90;;;;;;5036956;28;20049;-54
2023/09/12 05:48:09;;;;;;;46.22;30.75;;;18.30;99.90;;;;;;5044506;28;20037;-52
2023/09/12 05:50:36;;;;;;;50.38;30.95;;;18.30;99.90;;;;;;5040863;28;20054;-50
2023/09/12 05:53:02;;;;;;;52.35;31.67;;;18.30;99.90;;;;;;5045234;28;20067;-49
2023/09/12 05:55:28;;;;;;;59.60;31.95;;;18.30;99.90;;;;;;5046020;28;20040;-50
2023/09/12 05:57:53;;;;;;;60.22;31.88;;;18.30;99.90;;;;;;5045707;28;20060;-53
2023/09/12 06:00:20;;;;;;;57.80;31.52;;;18.30;99.90;;;;;;5052612;28;20048;-51
2023/09/12 06:02:47;;;;;;;60.10;30.85;;;18.30;99.90;;;;;;5046464;28;20072;-54
2023/09/12 06:05:12;;;;;;;56.95;31.10;;;18.30;99.90;;;;;;5052861;28;20091;-54
2023/09/12 06:07:40;;;;;;;99.43;31.10;;;18.30;99.90;;;;;;5044604;28;20076;-55
2023/09/12 06:10:07;;;;;;;54.55;31.08;;;18.20;99.90;;;;;;5043172;28;20044;-51
2023/09/12 06:12:32;;;;;;;83.78;30.83;;;18.20;99.90;;;;;;5049192;28;20051;-52
2023/09/12 06:14:59;;;;;;;59.03;30.88;;;18.20;99.90;;;;;;5041430;28;20033;-56
2023/09/12 06:17:25;;;;;;;57.53;30.92;;;18.20;99.90;;;;;;4999157;28;20481;-62
2023/09/12 06:19:51;;;;;;;61.08;32.88;;;18.20;99.90;;;;;;5018454;28;20040;-63
2023/09/12 06:22:17;;;;;;;74.72;35.30;;;18.20;99.90;;;;;;5028438;28;20044;-62
2023/09/12 06:24:44;;;;;;;67.10;34.22;;;18.20;99.90;;;;;;5030297;28;20566;-63
2023/09/12 06:27:12;;;;;;;65.18;34.08;;;18.30;99.90;;;;;;5013858;28;20520;-63
2023/09/12 06:29:38;;;;;;;66.25;34.72;;;18.30;99.90;;;;;;5006008;28;20176;-62
2023/09/12 06:32:04;;;;;;;65.38;34.60;;;18.30;99.90;;;;;;5007703;28;20440;-63
2023/09/12 06:34:30;;;;;;;67.20;34.25;;;18.40;99.90;;;;;;4998738;28;20503;-63
2023/09/12 06:36:55;;;;;;;73.65;36.40;;;18.40;99.90;;;;;;5008611;28;20041;-62
2023/09/12 06:39:21;;;;;;;88.07;36.17;;;18.40;99.90;;;;;;5010253;28;20041;-60
2023/09/12 06:41:47;;;;;;;87.70;35.35;;;18.40;99.90;;;;;;5013666;28;21962;-63
2023/09/12 06:44:12;;;;;;;72.15;35.42;;;18.50;99.90;;;;;;5003969;28;20126;-61
2023/09/12 06:46:38;;;;;;;69.97;35.65;;;18.50;99.90;;;;;;5004023;28;20045;-62
2023/09/12 06:49:04;;;;;;;67.75;35.13;;;18.50;99.90;;;;;;5001774;28;20192;-61
2023/09/12 06:51:30;;;;;;;67.50;34.90;;;18.50;99.90;;;;;;5006419;28;20053;-63
2023/09/12 06:53:56;;;;;;;72.70;35.75;;;18.60;99.90;;;;;;5008550;28;20040;-64
2023/09/12 06:56:21;;;;;;;68.63;36.40;;;18.60;99.90;;;;;;4998824;28;20046;-64
2023/09/12 06:58:48;;;;;;;68.57;35.90;;;18.60;99.90;;;;;;5012883;28;20048;-63
2023/09/12 07:01:14;;;;;;;73.43;36.65;;;18.70;99.90;;;;;;5015909;28;20040;-62
2023/09/12 07:03:39;;;;;;;70.40;36.55;;;18.70;99.90;;;;;;5020785;28;20408;-62
2023/09/12 07:06:05;;;;;;;77.60;36.88;;;18.80;99.90;;;;;;5018963;28;20464;-63
2023/09/12 07:08:32;;;;;;;70.20;35.92;;;18.80;99.90;;;;;;5018576;28;20050;-62
2023/09/12 07:11:05;;;;;;;70.65;36.42;;;18.80;99.90;;;;;;5018286;28;20057;-64
2023/09/12 07:13:31;;;;;;;79.43;37.03;;;18.90;99.90;;;;;;5015519;28;20232;-64
2023/09/12 07:15:57;;;;;;;64.47;35.35;;;18.90;99.90;;;;;;5019985;28;20661;-63
2023/09/12 07:18:23;;;;;;;63.53;35.10;;;19.00;99.90;;;;;;5019257;28;20080;-64
2023/09/12 07:20:57;;;;;;;68.05;35.95;;;19.00;99.90;;;;;;5021267;28;20470;-64
2023/09/12 07:23:23;;;;;;;68.82;35.92;;;19.10;99.90;;;;;;5021173;28;20048;-63
2023/09/12 07:25:49;;;;;;;66.72;35.42;;;19.10;99.90;;;;;;5021603;28;20038;-64
2023/09/12 07:28:15;;;;;;;69.43;36.65;;;19.10;99.90;;;;;;5018391;28;20420;-63
2023/09/12 07:30:41;;;;;;;61.40;34.63;;;19.20;99.90;;;;;;5014578;28;20037;-61
2023/09/12 07:33:06;;;;;;;59.70;34.45;;;19.20;99.90;;;;;;5011161;28;20557;-63
2023/09/12 07:35:32;;;;;;;65.75;34.03;;;19.20;99.90;;;;;;5000017;28;20533;-61
2023/09/12 07:37:58;;;;;;;64.28;34.63;;;19.30;99.90;;;;;;4992655;28;20045;-62
2023/09/12 07:40:24;;;;;;;63.42;35.30;;;19.20;99.90;;;;;;5001378;28;20165;-63
2023/09/12 07:42:50;;;;;;;62.53;35.25;;;19.30;99.90;;;;;;5005747;28;20577;-61
2023/09/12 07:45:16;;;;;;;60.78;35.67;;;19.30;99.90;;;;;;4985959;28;20038;-61
2023/09/12 07:47:41;;;;;;;64.68;35.25;;;19.30;99.90;;;;;;5004533;28;20594;-63
2023/09/12 07:50:07;;;;;;;66.40;37.15;;;19.30;99.90;;;;;;5007040;28;20045;-61
2023/09/12 07:52:33;;;;;;;65.40;36.72;;;19.40;99.90;;;;;;5009422;28;20195;-63
2023/09/12 07:55:00;;;;;;;61.47;35.03;;;19.40;99.90;;;;;;5005072;28;20501;-59
2023/09/12 07:57:26;;;;;;;67.43;35.53;;;19.40;99.90;;;;;;5005733;28;20057;-63
2023/09/12 07:59:51;;;;;;;62.15;37.08;;;19.50;99.90;;;;;;5001241;28;20038;-63
2023/09/12 08:02:17;;;;;;;69.05;37.28;;;19.50;99.90;;;;;;5018064;28;20706;-63
2023/09/12 08:04:43;;;;;;;64.75;37.05;;;19.50;99.90;;;;;;5001495;28;20128;-63
2023/09/12 08:07:09;;;;;;;62.78;36.22;;;19.50;99.90;;;;;;4999141;28;20703;-64
2023/09/12 08:09:56;;;;;;;64.88;36.83;;;19.60;99.90;;;;;;5007221;28;20055;-64
2023/09/12 08:12:24;;;;;;;56.83;34.45;;;19.60;99.90;;;;;;5004679;28;20041;-61
2023/09/12 08:14:50;;;;;;;63.05;35.17;;;19.60;99.90;;;;;;4998128;28;20108;-61
2023/09/12 08:17:16;;;;;;;59.70;34.50;;;19.60;99.90;;;;;;5004781;28;20883;-63
2023/09/12 08:19:42;;;;;;;54.47;33.97;;;19.60;99.90;;;;;;5007314;28;20048;-61
2023/09/12 08:22:09;;;;;;;61.95;35.60;;;19.70;99.90;;;;;;5009998;28;20182;-62
2023/09/12 08:24:36;;;;;;;65.93;34.72;;;19.70;99.90;;;;;;5011470;28;20124;-63
2023/09/12 08:27:02;;;;;;;57.42;32.63;;;19.70;99.90;;;;;;5008887;28;20442;-63
2023/09/12 08:29:29;;;;;;;63.80;35.53;;;19.80;99.90;;;;;;5002833;28;20093;-62
2023/09/12 08:31:54;;;;;;;57.65;33.85;;;19.90;99.90;;;;;;5010729;28;20433;-61
2023/09/12 08:34:21;;;;;;;66.50;36.38;;;20.00;99.90;;;;;;5006601;28;20034;-63
2023/09/12 08:36:47;;;;;;;59.80;35.17;;;20.10;99.90;;;;;;5008020;28;20061;-63
2023/09/12 08:39:22;;;;;;;62.55;35.08;;;20.20;99.90;;;;;;5004794;28;20045;-63
2023/09/12 08:41:48;;;;;;;59.33;34.63;;;20.40;99.90;;;;;;4998842;28;20067;-62
2023/09/12 08:44:15;;;;;;;54.72;33.38;;;20.50;99.90;;;;;;5007324;28;20038;-63
2023/09/12 08:46:42;;;;;;;56.50;33.45;;;20.50;99.90;;;;;;5009088;28;20055;-63
2023/09/12 08:49:09;;;;;;;57.15;33.10;;;20.60;99.90;;;;;;5007835;28;20045;-61
2023/09/12 08:51:36;;;;;;;59.45;33.42;;;20.60;99.90;;;;;;5011301;28;20046;-63
2023/09/12 08:54:04;;;;;;;57.20;32.00;;;20.70;99.90;;;;;;5009585;28;20046;-63
2023/09/12 08:56:30;;;;;;;59.13;33.17;;;20.70;99.90;;;;;;5003290;28;20076;-63
2023/09/12 08:58:58;;;;;;;53.13;32.35;;;20.70;99.90;;;;;;5008234;28;20449;-60
2023/09/12 09:01:27;;;;;;;52.53;31.92;;;20.80;99.90;;;;;;5011289;28;20154;-62
2023/09/12 09:03:53;;;;;;;57.58;32.45;;;20.80;99.90;;;;;;5009000;28;20079;-63
2023/09/12 09:06:22;;;;;;;56.47;32.13;;;20.80;99.90;;;;;;5009128;28;20049;-60
2023/09/12 09:08:49;;;;;;;55.53;31.73;;;20.80;99.90;;;;;;5010270;28;20052;-63
2023/09/12 09:11:15;;;;;;;59.92;33.75;;;20.80;99.90;;;;;;5007389;28;20046;-62
2023/09/12 09:13:41;;;;;;;52.33;32.00;;;20.90;99.90;;;;;;5003601;28;20045;-63
2023/09/12 09:16:19;;;;;;;55.90;32.72;;;20.80;99.90;;;;;;5009691;28;20045;-62
2023/09/12 09:19:09;;;;;;;55.33;32.75;;;20.80;99.90;;;;;;5008989;28;20040;-62
2023/09/12 09:21:36;;;;;;;51.67;32.30;;;20.80;99.90;;;;;;5012363;28;20037;-59
2023/09/12 09:24:06;;;;;;;56.42;33.05;;;20.80;99.90;;;;;;5009574;28;20052;-61
2023/09/12 09:26:45;;;;;;;59.47;34.65;;;20.90;99.90;;;;;;5011592;28;20448;-62
2023/09/12 09:29:22;;;;;;;52.40;31.92;;;20.90;99.90;;;;;;4994412;28;20418;-62
2023/09/12 09:31:50;;;;;;;57.90;32.88;;;21.00;99.90;;;;;;4990660;28;20038;-61
2023/09/12 09:34:21;;;;;;;58.17;33.88;;;21.00;99.90;;;;;;4992740;28;20620;-61
2023/09/12 09:36:48;;;;;;;58.90;34.53;;;21.10;99.90;;;;;;4996486;28;20054;-61
2023/09/12 09:39:15;;;;;;;50.50;32.58;;;21.20;99.90;;;;;;5018020;28;20046;-62
2023/09/12 09:41:41;;;;;;;55.97;33.92;;;21.30;99.90;;;;;;5019597;28;20422;-62
2023/09/12 09:44:08;;;;;;;54.17;34.60;;;21.40;99.90;;;;;;5018751;28;20085;-62
2023/09/12 09:46:36;;;;;;;54.92;33.95;;;21.50;99.90;;;;;;5021588;28;20367;-63
2023/09/12 09:49:02;;;;;;;56.15;33.72;;;21.60;99.90;;;;;;5021542;28;20068;-62
2023/09/12 09:51:31;;;;;;;50.70;32.47;;;21.60;99.90;;;;;;5006663;28;20497;-63
2023/09/12 09:53:58;;;;;;;56.47;33.83;;;21.70;99.90;;;;;;5021708;28;20524;-63
2023/09/12 09:56:25;;;;;;;55.08;33.63;;;21.80;99.90;;;;;;5021272;28;20052;-62
2023/09/12 09:58:55;;;;;;;55.45;32.65;;;21.90;99.90;;;;;;5003348;28;20091;-62
2023/09/12 10:01:28;;;;;;;55.80;33.97;;;22.00;99.90;;;;;;5018540;28;20135;-62
2023/09/12 10:03:58;;;;;;;51.97;32.42;;;22.00;99.90;;;;;;5020678;28;20600;-61
2023/09/12 10:06:26;;;;;;;58.83;34.38;;;22.00;99.90;;;;;;5001760;28;20486;-62
2023/09/12 10:08:53;;;;;;;54.08;31.75;;;22.10;99.90;;;;;;5015138;28;20100;-59
2023/09/12 10:11:28;;;;;;;52.58;33.47;;;22.30;99.90;;;;;;5019811;28;20056;-62
2023/09/12 10:13:55;;;;;;;52.92;32.85;;;22.50;99.90;;;;;;5016044;28;20041;-62
2023/09/12 10:16:30;;;;;;;52.08;31.90;;;22.60;99.90;;;;;;5020778;28;20107;-60
2023/09/12 10:19:24;;;;;;;49.17;31.75;;;22.60;99.90;;;;;;5021065;28;20033;-63
2023/09/12 10:22:14;;;;;;;46.17;30.80;;;22.60;99.90;;;;;;5017858;28;20033;-63
2023/09/12 10:24:41;;;;;;;51.47;31.85;;;22.60;99.90;;;;;;4988831;28;20095;-60
2023/09/12 10:27:09;;;;;;;47.45;29.83;;;22.70;99.90;;;;;;5008593;28;20046;-62
2023/09/12 10:29:35;;;;;;;46.20;30.80;;;22.80;99.90;;;;;;5012722;28;20041;-62
2023/09/12 10:32:01;;;;;;;47.53;31.23;;;22.80;99.90;;;;;;5033173;28;20044;-62
2023/09/12 10:34:29;;;;;;;50.63;32.15;;;22.80;99.90;;;;;;5030922;28;20051;-61
2023/09/12 10:36:57;;;;;;;50.45;31.70;;;22.90;99.90;;;;;;5016792;28;20057;-62
2023/09/12 10:39:24;;;;;;;47.63;30.88;;;23.00;99.90;;;;;;5033216;28;20040;-63
2023/09/12 10:41:54;;;;;;;47.35;29.55;;;23.10;99.90;;;;;;5014756;28;20584;-62
2023/09/12 10:44:21;;;;;;;45.85;29.15;;;23.30;99.90;;;;;;5027541;28;20044;-62
2023/09/12 10:46:48;;;;;;;47.20;27.55;;;23.40;99.90;;;;;;5031346;28;20059;-62
2023/09/12 10:49:15;;;;;;;45.08;28.48;;;23.50;99.90;;;;;;5027378;28;20133;-60
2023/09/12 10:51:45;;;;;;;39.55;27.08;;;23.60;99.90;;;;;;5030509;28;20049;-63
2023/09/12 10:54:16;;;;;;;37.22;23.95;;;23.70;99.90;;;;;;5032206;28;20045;-62
2023/09/12 10:56:44;;;;;;;42.58;28.45;;;23.80;99.90;;;;;;5027283;28;20056;-63
2023/09/12 10:59:11;;;;;;;41.75;27.83;;;23.80;99.90;;;;;;5028974;28;20570;-62
2023/09/12 11:01:39;;;;;;;42.47;29.17;;;23.90;99.90;;;;;;5025399;28;20154;-62
2023/09/12 11:04:27;;;;;;;32.50;22.15;;;23.90;99.90;;;;;;5009391;28;20516;-61
2023/09/12 11:06:53;;;;;;;32.95;20.75;;;23.90;99.90;;;;;;5009958;28;20040;-61
2023/09/12 11:09:23;;;;;;;31.27;20.08;;;24.00;99.90;;;;;;5025375;28;20045;-60
2023/09/12 11:12:04;;;;;;;27.65;18.75;;;24.10;99.90;;;;;;5026284;28;20105;-62
2023/09/12 11:14:31;;;;;;;29.77;19.42;;;24.10;99.90;;;;;;5031354;28;20073;-62
2023/09/12 11:17:06;;;;;;;28.45;19.60;;;24.10;99.90;;;;;;5029287;28;20061;-62
2023/09/12 11:19:52;;;;;;;35.85;21.58;;;24.10;99.90;;;;;;5013053;28;20128;-62
2023/09/12 11:22:44;;;;;;;37.67;24.27;;;24.10;99.90;;;;;;5031090;28;20032;-63
2023/09/12 11:25:17;;;;;;;33.33;22.40;;;24.10;99.90;;;;;;5018378;28;20049;-60
2023/09/12 11:27:51;;;;;;;29.88;20.23;;;24.10;99.90;;;;;;5002302;28;20421;-62
2023/09/12 11:30:18;;;;;;;31.77;21.17;;;24.10;99.90;;;;;;5013869;28;20394;-63
2023/09/12 11:32:47;;;;;;;31.00;20.92;;;24.10;99.90;;;;;;5004687;28;20460;-61
2023/09/12 11:35:14;;;;;;;33.78;22.65;;;24.20;99.90;;;;;;5006377;28;20044;-63
2023/09/12 11:37:52;;;;;;;34.55;21.55;;;24.20;99.90;;;;;;5002692;28;20497;-62
2023/09/12 11:40:23;;;;;;;32.42;19.33;;;24.40;99.90;;;;;;5009965;28;20360;-63
2023/09/12 11:42:52;;;;;;;29.77;20.05;;;24.50;99.90;;;;;;5008616;28;20055;-62
2023/09/12 11:45:20;;;;;;;32.42;20.88;;;24.70;99.90;;;;;;5022644;28;20812;-62
2023/09/12 11:47:46;;;;;;;27.63;19.23;;;24.90;99.90;;;;;;5007102;28;20863;-62
2023/09/12 11:50:32;;;;;;;30.08;20.70;;;25.10;99.90;;;;;;5012851;28;20041;-61
2023/09/12 11:53:03;;;;;;;30.13;19.70;;;25.30;99.90;;;;;;5008663;28;20064;-62
2023/09/12 11:55:42;;;;;;;26.23;19.83;;;25.50;99.90;;;;;;5010831;28;21120;-61
2023/09/12 11:58:07;;;;;;;28.35;19.88;;;25.50;99.90;;;;;;5008678;28;20418;-63
2023/09/12 12:00:33;;;;;;;28.48;18.33;;;25.50;99.90;;;;;;5008549;28;20045;-62
2023/09/12 12:02:59;;;;;;;27.42;18.05;;;25.40;99.90;;;;;;5006482;28;20111;-62
2023/09/12 12:05:25;;;;;;;28.02;18.63;;;25.40;99.90;;;;;;5011146;28;20044;-61
2023/09/12 12:07:51;;;;;;;28.27;19.65;;;25.30;99.90;;;;;;5009439;28;20041;-62
2023/09/12 12:10:17;;;;;;;30.10;17.42;;;25.30;99.90;;;;;;5009954;28;20045;-61
2023/09/12 12:12:46;;;;;;;24.33;17.23;;;25.20;99.90;;;;;;5008644;28;20393;-63
2023/09/12 12:15:13;;;;;;;24.13;16.13;;;25.30;99.90;;;;;;5008144;28;20049;-63
2023/09/12 12:17:40;;;;;;;24.40;15.85;;;25.40;99.90;;;;;;5007290;28;20049;-59
2023/09/12 12:20:11;;;;;;;26.27;17.42;;;25.60;99.90;;;;;;5010591;28;20045;-63
2023/09/12 12:22:38;;;;;;;27.70;17.52;;;25.50;99.90;;;;;;5010188;28;20041;-62
2023/09/12 12:25:11;;;;;;;24.38;17.20;;;25.30;99.90;;;;;;5009113;28;20052;-61
2023/09/12 12:27:41;;;;;;;19.08;12.65;;;25.10;99.90;;;;;;5002489;28;20061;-61
2023/09/12 12:30:11;;;;;;;16.35;7.70;;;25.00;99.90;;;;;;5029039;28;20064;-61